Terminal Aerodrome Forecast
Issued by NWS

Home | Current Version | Previous Version | Text Only | Print | Product List | Glossary On
Versions: 1 2 3 4 5 6 7 8 9 10 11 12 13 14
000
FTUS44 KTSA 280500
TAFRVS
TAF
KRVS 280520Z 2806/2906 01005KT 6SM -SHRA BR OVC050
     FM281200 01007KT P6SM OVC050
     FM281700 02012G18KT P6SM BKN250
     FM290000 01005KT P6SM SKC=

USA.gov is the U.S. government's official web portal to all federal, state and local government web resources and services.